sensor_id;sensor_type;location;lat;lon;timestamp;P1;durP1;ratioP1;P2;durP2;ratioP2
21000;SDS011;10658;50.920;12.238;2022-09-06T00:03:16;7.72;;;6.93;;
21000;SDS011;10658;50.920;12.238;2022-09-06T00:07:18;10.90;;;7.45;;
21000;SDS011;10658;50.920;12.238;2022-09-06T00:11:19;9.82;;;7.72;;
21000;SDS011;10658;50.920;12.238;2022-09-06T00:15:21;8.90;;;8.00;;
21000;SDS011;10658;50.920;12.238;2022-09-06T00:19:22;9.45;;;8.30;;
21000;SDS011;10658;50.920;12.238;2022-09-06T00:23:23;8.25;;;7.45;;
21000;SDS011;10658;50.920;12.238;2022-09-06T00:27:25;8.73;;;7.28;;
21000;SDS011;10658;50.920;12.238;2022-09-06T00:31:28;9.02;;;8.10;;
21000;SDS011;10658;50.920;12.238;2022-09-06T00:35:29;9.40;;;7.43;;
21000;SDS011;10658;50.920;12.238;2022-09-06T00:39:30;10.20;;;8.40;;
21000;SDS011;10658;50.920;12.238;2022-09-06T00:43:32;12.15;;;9.45;;
21000;SDS011;10658;50.920;12.238;2022-09-06T00:47:34;10.10;;;9.10;;
21000;SDS011;10658;50.920;12.238;2022-09-06T00:51:39;12.05;;;9.80;;
21000;SDS011;10658;50.920;12.238;2022-09-06T00:55:41;11.30;;;9.35;;
21000;SDS011;10658;50.920;12.238;2022-09-06T00:59:43;8.60;;;7.75;;
21000;SDS011;10658;50.920;12.238;2022-09-06T01:03:46;11.68;;;8.40;;
21000;SDS011;10658;50.920;12.238;2022-09-06T01:16:19;8.52;;;7.63;;
21000;SDS011;10658;50.920;12.238;2022-09-06T01:21:14;13.15;;;9.25;;
21000;SDS011;10658;50.920;12.238;2022-09-06T01:29:31;12.65;;;8.40;;
21000;SDS011;10658;50.920;12.238;2022-09-06T01:33:53;9.23;;;8.23;;
21000;SDS011;10658;50.920;12.238;2022-09-06T01:38:03;10.45;;;8.45;;
21000;SDS011;10658;50.920;12.238;2022-09-06T01:46:30;8.25;;;7.45;;
21000;SDS011;10658;50.920;12.238;2022-09-06T01:54:58;10.13;;;8.50;;
21000;SDS011;10658;50.920;12.238;2022-09-06T02:03:41;10.32;;;8.63;;
21000;SDS011;10658;50.920;12.238;2022-09-06T02:07:46;10.52;;;9.38;;
21000;SDS011;10658;50.920;12.238;2022-09-06T02:11:56;13.90;;;9.13;;
21000;SDS011;10658;50.920;12.238;2022-09-06T02:16:01;10.73;;;9.40;;
21000;SDS011;10658;50.920;12.238;2022-09-06T02:20:16;10.23;;;8.75;;
21000;SDS011;10658;50.920;12.238;2022-09-06T02:24:22;9.10;;;7.95;;
21000;SDS011;10658;50.920;12.238;2022-09-06T02:28:30;9.70;;;8.70;;
21000;SDS011;10658;50.920;12.238;2022-09-06T02:32:33;8.48;;;7.55;;
21000;SDS011;10658;50.920;12.238;2022-09-06T02:36:38;10.65;;;9.50;;
21000;SDS011;10658;50.920;12.238;2022-09-06T02:40:39;9.98;;;8.68;;
21000;SDS011;10658;50.920;12.238;2022-09-06T02:44:43;11.95;;;10.07;;
21000;SDS011;10658;50.920;12.238;2022-09-06T02:48:44;13.52;;;9.10;;
21000;SDS011;10658;50.920;12.238;2022-09-06T02:52:59;9.73;;;8.73;;
21000;SDS011;10658;50.920;12.238;2022-09-06T02:57:13;12.52;;;9.90;;
21000;SDS011;10658;50.920;12.238;2022-09-06T03:01:14;12.18;;;10.48;;
21000;SDS011;10658;50.920;12.238;2022-09-06T03:05:15;12.68;;;10.85;;
21000;SDS011;10658;50.920;12.238;2022-09-06T03:09:16;13.77;;;10.93;;
21000;SDS011;10658;50.920;12.238;2022-09-06T03:13:17;12.02;;;10.80;;
21000;SDS011;10658;50.920;12.238;2022-09-06T03:17:19;14.80;;;10.93;;
21000;SDS011;10658;50.920;12.238;2022-09-06T03:21:20;13.45;;;11.05;;
21000;SDS011;10658;50.920;12.238;2022-09-06T03:25:21;13.55;;;11.32;;
21000;SDS011;10658;50.920;12.238;2022-09-06T03:29:23;14.27;;;11.93;;
21000;SDS011;10658;50.920;12.238;2022-09-06T03:33:24;15.00;;;11.27;;
21000;SDS011;10658;50.920;12.238;2022-09-06T03:37:26;15.02;;;10.98;;
21000;SDS011;10658;50.920;12.238;2022-09-06T03:41:28;11.90;;;10.52;;
21000;SDS011;10658;50.920;12.238;2022-09-06T03:45:29;15.38;;;10.27;;
21000;SDS011;10658;50.920;12.238;2022-09-06T03:49:31;14.00;;;10.95;;
21000;SDS011;10658;50.920;12.238;2022-09-06T03:53:33;12.25;;;10.57;;
21000;SDS011;10658;50.920;12.238;2022-09-06T03:57:33;12.57;;;11.25;;
21000;SDS011;10658;50.920;12.238;2022-09-06T04:01:35;13.52;;;10.45;;
21000;SDS011;10658;50.920;12.238;2022-09-06T04:05:36;13.27;;;10.25;;
21000;SDS011;10658;50.920;12.238;2022-09-06T04:09:38;13.57;;;11.10;;
21000;SDS011;10658;50.920;12.238;2022-09-06T04:13:40;14.70;;;11.02;;
21000;SDS011;10658;50.920;12.238;2022-09-06T04:17:45;11.43;;;10.15;;
21000;SDS011;10658;50.920;12.238;2022-09-06T04:21:47;12.07;;;10.27;;
21000;SDS011;10658;50.920;12.238;2022-09-06T04:25:49;14.45;;;11.98;;
21000;SDS011;10658;50.920;12.238;2022-09-06T04:29:55;13.25;;;10.05;;
21000;SDS011;10658;50.920;12.238;2022-09-06T04:33:56;10.82;;;9.13;;
21000;SDS011;10658;50.920;12.238;2022-09-06T04:38:01;14.20;;;10.55;;
21000;SDS011;10658;50.920;12.238;2022-09-06T04:42:03;11.57;;;10.13;;
21000;SDS011;10658;50.920;12.238;2022-09-06T04:46:06;11.55;;;10.05;;
21000;SDS011;10658;50.920;12.238;2022-09-06T04:50:12;11.38;;;9.15;;
21000;SDS011;10658;50.920;12.238;2022-09-06T04:54:14;10.77;;;9.20;;
21000;SDS011;10658;50.920;12.238;2022-09-06T04:58:15;12.15;;;9.85;;
21000;SDS011;10658;50.920;12.238;2022-09-06T05:02:18;12.13;;;10.00;;
21000;SDS011;10658;50.920;12.238;2022-09-06T05:06:20;11.32;;;9.70;;
21000;SDS011;10658;50.920;12.238;2022-09-06T05:10:23;11.77;;;10.57;;
21000;SDS011;10658;50.920;12.238;2022-09-06T05:14:25;13.13;;;11.18;;
21000;SDS011;10658;50.920;12.238;2022-09-06T05:18:27;12.55;;;10.57;;
21000;SDS011;10658;50.920;12.238;2022-09-06T05:22:29;10.93;;;9.45;;
21000;SDS011;10658;50.920;12.238;2022-09-06T05:26:32;13.38;;;10.88;;
21000;SDS011;10658;50.920;12.238;2022-09-06T05:30:33;13.25;;;10.85;;
21000;SDS011;10658;50.920;12.238;2022-09-06T05:34:35;17.08;;;10.75;;
21000;SDS011;10658;50.920;12.238;2022-09-06T05:38:37;11.80;;;9.63;;
21000;SDS011;10658;50.920;12.238;2022-09-06T05:42:38;12.70;;;10.82;;
21000;SDS011;10658;50.920;12.238;2022-09-06T05:46:41;12.77;;;10.85;;
21000;SDS011;10658;50.920;12.238;2022-09-06T05:50:46;11.45;;;9.70;;
21000;SDS011;10658;50.920;12.238;2022-09-06T05:54:47;12.40;;;11.13;;
21000;SDS011;10658;50.920;12.238;2022-09-06T05:58:48;17.10;;;11.63;;
21000;SDS011;10658;50.920;12.238;2022-09-06T06:02:49;13.98;;;11.90;;
21000;SDS011;10658;50.920;12.238;2022-09-06T06:06:52;13.95;;;9.73;;
21000;SDS011;10658;50.920;12.238;2022-09-06T06:10:56;14.63;;;11.57;;
21000;SDS011;10658;50.920;12.238;2022-09-06T06:15:00;10.77;;;9.27;;
21000;SDS011;10658;50.920;12.238;2022-09-06T06:19:01;12.70;;;9.80;;
21000;SDS011;10658;50.920;12.238;2022-09-06T06:23:03;14.07;;;10.30;;
21000;SDS011;10658;50.920;12.238;2022-09-06T06:27:04;14.43;;;9.60;;
21000;SDS011;10658;50.920;12.238;2022-09-06T06:31:07;14.00;;;9.85;;
21000;SDS011;10658;50.920;12.238;2022-09-06T06:35:10;10.50;;;9.15;;
21000;SDS011;10658;50.920;12.238;2022-09-06T06:39:12;9.18;;;8.20;;
21000;SDS011;10658;50.920;12.238;2022-09-06T06:43:13;8.70;;;7.45;;
21000;SDS011;10658;50.920;12.238;2022-09-06T06:51:41;10.95;;;9.07;;
21000;SDS011;10658;50.920;12.238;2022-09-06T06:55:49;12.63;;;8.80;;
21000;SDS011;10658;50.920;12.238;2022-09-06T06:59:50;13.07;;;9.00;;
21000;SDS011;10658;50.920;12.238;2022-09-06T07:03:52;11.10;;;9.00;;
21000;SDS011;10658;50.920;12.238;2022-09-06T07:07:54;10.82;;;7.85;;
21000;SDS011;10658;50.920;12.238;2022-09-06T07:11:55;8.18;;;6.75;;
21000;SDS011;10658;50.920;12.238;2022-09-06T07:16:13;8.43;;;5.47;;
21000;SDS011;10658;50.920;12.238;2022-09-06T07:20:17;11.43;;;6.70;;
21000;SDS011;10658;50.920;12.238;2022-09-06T07:24:20;9.63;;;7.13;;
21000;SDS011;10658;50.920;12.238;2022-09-06T07:28:21;9.93;;;6.15;;
21000;SDS011;10658;50.920;12.238;2022-09-06T07:32:23;5.90;;;5.30;;
21000;SDS011;10658;50.920;12.238;2022-09-06T07:36:24;7.20;;;5.40;;
21000;SDS011;10658;50.920;12.238;2022-09-06T07:40:28;5.85;;;5.25;;
21000;SDS011;10658;50.920;12.238;2022-09-06T07:44:30;6.00;;;5.38;;
21000;SDS011;10658;50.920;12.238;2022-09-06T07:48:33;6.22;;;5.63;;
21000;SDS011;10658;50.920;12.238;2022-09-06T07:52:35;6.25;;;5.65;;
21000;SDS011;10658;50.920;12.238;2022-09-06T07:56:37;7.97;;;5.85;;
21000;SDS011;10658;50.920;12.238;2022-09-06T08:00:38;6.25;;;5.65;;
21000;SDS011;10658;50.920;12.238;2022-09-06T08:04:40;6.95;;;5.80;;
21000;SDS011;10658;50.920;12.238;2022-09-06T08:08:42;6.55;;;5.90;;
21000;SDS011;10658;50.920;12.238;2022-09-06T08:12:44;7.05;;;6.10;;
21000;SDS011;10658;50.920;12.238;2022-09-06T08:16:46;9.70;;;5.85;;
21000;SDS011;10658;50.920;12.238;2022-09-06T08:20:46;7.90;;;5.65;;
21000;SDS011;10658;50.920;12.238;2022-09-06T08:24:47;5.95;;;5.20;;
21000;SDS011;10658;50.920;12.238;2022-09-06T08:29:07;4.75;;;4.40;;
21000;SDS011;10658;50.920;12.238;2022-09-06T08:33:10;6.55;;;5.15;;
21000;SDS011;10658;50.920;12.238;2022-09-06T08:37:11;6.05;;;5.20;;
21000;SDS011;10658;50.920;12.238;2022-09-06T08:45:21;7.63;;;5.63;;
21000;SDS011;10658;50.920;12.238;2022-09-06T08:49:31;9.45;;;5.57;;
21000;SDS011;10658;50.920;12.238;2022-09-06T08:53:38;5.97;;;5.10;;
21000;SDS011;10658;50.920;12.238;2022-09-06T09:02:19;6.13;;;5.53;;
21000;SDS011;10658;50.920;12.238;2022-09-06T09:06:21;9.50;;;5.22;;
21000;SDS011;10658;50.920;12.238;2022-09-06T09:10:39;5.20;;;4.53;;
21000;SDS011;10658;50.920;12.238;2022-09-06T09:14:44;6.75;;;5.55;;
21000;SDS011;10658;50.920;12.238;2022-09-06T09:18:52;8.40;;;5.68;;
21000;SDS011;10658;50.920;12.238;2022-09-06T09:22:57;5.47;;;4.88;;
21000;SDS011;10658;50.920;12.238;2022-09-06T09:27:06;6.25;;;4.80;;
21000;SDS011;10658;50.920;12.238;2022-09-06T09:31:11;5.78;;;5.28;;
21000;SDS011;10658;50.920;12.238;2022-09-06T09:44:35;7.93;;;5.20;;
21000;SDS011;10658;50.920;12.238;2022-09-06T10:09:19;6.75;;;6.03;;
21000;SDS011;10658;50.920;12.238;2022-09-06T10:19:38;6.70;;;5.40;;
21000;SDS011;10658;50.920;12.238;2022-09-06T10:46:43;10.68;;;9.57;;
21000;SDS011;10658;50.920;12.238;2022-09-06T10:50:56;9.55;;;8.65;;
21000;SDS011;10658;50.920;12.238;2022-09-06T10:55:06;9.98;;;8.93;;
21000;SDS011;10658;50.920;12.238;2022-09-06T10:59:25;12.93;;;11.38;;
21000;SDS011;10658;50.920;12.238;2022-09-06T11:03:31;11.98;;;10.65;;
21000;SDS011;10658;50.920;12.238;2022-09-06T11:07:43;13.38;;;11.50;;
21000;SDS011;10658;50.920;12.238;2022-09-06T11:16:18;19.17;;;12.02;;
21000;SDS011;10658;50.920;12.238;2022-09-06T11:20:31;16.30;;;11.23;;
21000;SDS011;10658;50.920;12.238;2022-09-06T11:28:54;10.98;;;9.45;;
21000;SDS011;10658;50.920;12.238;2022-09-06T11:37:41;10.40;;;6.40;;
21000;SDS011;10658;50.920;12.238;2022-09-06T11:41:44;5.90;;;5.25;;
21000;SDS011;10658;50.920;12.238;2022-09-06T11:45:49;5.97;;;5.00;;
21000;SDS011;10658;50.920;12.238;2022-09-06T11:49:51;6.13;;;4.82;;
21000;SDS011;10658;50.920;12.238;2022-09-06T11:57:58;7.60;;;5.55;;
21000;SDS011;10658;50.920;12.238;2022-09-06T12:02:07;5.45;;;4.95;;
21000;SDS011;10658;50.920;12.238;2022-09-06T12:11:04;9.32;;;5.50;;
21000;SDS011;10658;50.920;12.238;2022-09-06T12:15:26;5.97;;;5.38;;
21000;SDS011;10658;50.920;12.238;2022-09-06T12:23:40;9.55;;;6.65;;
21000;SDS011;10658;50.920;12.238;2022-09-06T12:27:50;8.93;;;6.10;;
21000;SDS011;10658;50.920;12.238;2022-09-06T12:31:57;8.93;;;5.85;;
21000;SDS011;10658;50.920;12.238;2022-09-06T12:36:17;7.97;;;6.00;;
21000;SDS011;10658;50.920;12.238;2022-09-06T12:40:23;7.10;;;5.90;;
21000;SDS011;10658;50.920;12.238;2022-09-06T12:44:35;6.78;;;5.13;;
21000;SDS011;10658;50.920;12.238;2022-09-06T12:48:37;6.07;;;5.18;;
21000;SDS011;10658;50.920;12.238;2022-09-06T12:56:46;4.30;;;3.90;;
21000;SDS011;10658;50.920;12.238;2022-09-06T13:00:49;4.07;;;3.50;;
21000;SDS011;10658;50.920;12.238;2022-09-06T13:04:59;3.45;;;3.13;;
21000;SDS011;10658;50.920;12.238;2022-09-06T13:09:07;4.25;;;3.85;;
21000;SDS011;10658;50.920;12.238;2022-09-06T13:13:21;5.18;;;3.55;;
21000;SDS011;10658;50.920;12.238;2022-09-06T13:17:28;3.95;;;3.20;;
21000;SDS011;10658;50.920;12.238;2022-09-06T13:21:31;2.63;;;2.42;;
21000;SDS011;10658;50.920;12.238;2022-09-06T13:25:56;3.70;;;3.33;;
21000;SDS011;10658;50.920;12.238;2022-09-06T13:29:58;3.35;;;3.05;;
21000;SDS011;10658;50.920;12.238;2022-09-06T13:34:01;4.97;;;3.90;;
21000;SDS011;10658;50.920;12.238;2022-09-06T13:42:30;5.88;;;4.25;;
21000;SDS011;10658;50.920;12.238;2022-09-06T13:46:33;7.30;;;3.75;;
21000;SDS011;10658;50.920;12.238;2022-09-06T13:50:38;4.47;;;3.92;;
21000;SDS011;10658;50.920;12.238;2022-09-06T13:54:41;4.28;;;3.88;;
21000;SDS011;10658;50.920;12.238;2022-09-06T14:02:59;6.00;;;5.40;;
21000;SDS011;10658;50.920;12.238;2022-09-06T14:07:01;6.63;;;5.40;;
21000;SDS011;10658;50.920;12.238;2022-09-06T14:11:02;5.78;;;4.88;;
21000;SDS011;10658;50.920;12.238;2022-09-06T14:15:04;6.03;;;5.30;;
21000;SDS011;10658;50.920;12.238;2022-09-06T14:19:05;6.50;;;5.10;;
21000;SDS011;10658;50.920;12.238;2022-09-06T14:23:07;5.85;;;5.35;;
21000;SDS011;10658;50.920;12.238;2022-09-06T14:27:08;6.35;;;5.47;;
21000;SDS011;10658;50.920;12.238;2022-09-06T14:31:13;6.82;;;6.07;;
21000;SDS011;10658;50.920;12.238;2022-09-06T14:35:16;6.07;;;5.47;;
21000;SDS011;10658;50.920;12.238;2022-09-06T14:39:18;5.70;;;5.22;;
21000;SDS011;10658;50.920;12.238;2022-09-06T14:43:19;5.20;;;4.00;;
21000;SDS011;10658;50.920;12.238;2022-09-06T14:47:20;6.57;;;4.50;;
21000;SDS011;10658;50.920;12.238;2022-09-06T14:51:21;4.15;;;3.78;;
21000;SDS011;10658;50.920;12.238;2022-09-06T14:55:23;7.18;;;4.78;;
21000;SDS011;10658;50.920;12.238;2022-09-06T14:59:24;6.05;;;5.20;;
21000;SDS011;10658;50.920;12.238;2022-09-06T15:03:25;5.30;;;4.80;;
21000;SDS011;10658;50.920;12.238;2022-09-06T15:07:26;5.57;;;4.65;;
21000;SDS011;10658;50.920;12.238;2022-09-06T15:11:29;6.28;;;5.13;;
21000;SDS011;10658;50.920;12.238;2022-09-06T15:15:30;4.78;;;4.38;;
21000;SDS011;10658;50.920;12.238;2022-09-06T15:19:31;5.63;;;5.13;;
21000;SDS011;10658;50.920;12.238;2022-09-06T15:23:35;4.97;;;4.50;;
21000;SDS011;10658;50.920;12.238;2022-09-06T15:27:36;5.93;;;4.50;;
21000;SDS011;10658;50.920;12.238;2022-09-06T15:31:39;4.38;;;3.78;;
21000;SDS011;10658;50.920;12.238;2022-09-06T15:35:41;4.75;;;4.05;;
21000;SDS011;10658;50.920;12.238;2022-09-06T15:39:42;2.97;;;2.70;;
21000;SDS011;10658;50.920;12.238;2022-09-06T15:43:45;2.60;;;2.40;;
21000;SDS011;10658;50.920;12.238;2022-09-06T15:47:47;2.00;;;1.90;;
21000;SDS011;10658;50.920;12.238;2022-09-06T15:51:48;2.53;;;2.15;;
21000;SDS011;10658;50.920;12.238;2022-09-06T15:55:56;3.08;;;1.95;;
21000;SDS011;10658;50.920;12.238;2022-09-06T15:59:58;2.75;;;2.33;;
21000;SDS011;10658;50.920;12.238;2022-09-06T16:03:59;2.88;;;2.67;;
21000;SDS011;10658;50.920;12.238;2022-09-06T16:08:05;3.65;;;2.70;;
21000;SDS011;10658;50.920;12.238;2022-09-06T16:12:07;3.22;;;2.90;;
21000;SDS011;10658;50.920;12.238;2022-09-06T16:16:09;2.60;;;2.30;;
21000;SDS011;10658;50.920;12.238;2022-09-06T16:20:11;2.55;;;2.35;;
21000;SDS011;10658;50.920;12.238;2022-09-06T16:24:13;2.40;;;2.20;;
21000;SDS011;10658;50.920;12.238;2022-09-06T16:28:15;3.95;;;2.58;;
21000;SDS011;10658;50.920;12.238;2022-09-06T16:32:16;2.38;;;2.17;;
21000;SDS011;10658;50.920;12.238;2022-09-06T16:36:17;3.17;;;2.58;;
21000;SDS011;10658;50.920;12.238;2022-09-06T16:40:19;2.90;;;2.60;;
21000;SDS011;10658;50.920;12.238;2022-09-06T16:44:20;3.40;;;2.35;;
21000;SDS011;10658;50.920;12.238;2022-09-06T16:48:21;9.95;;;2.92;;
21000;SDS011;10658;50.920;12.238;2022-09-06T16:52:23;3.03;;;2.50;;
21000;SDS011;10658;50.920;12.238;2022-09-06T16:56:25;4.18;;;3.40;;
21000;SDS011;10658;50.920;12.238;2022-09-06T17:00:33;3.17;;;2.55;;
21000;SDS011;10658;50.920;12.238;2022-09-06T17:04:34;2.53;;;2.33;;
21000;SDS011;10658;50.920;12.238;2022-09-06T17:08:35;3.95;;;2.47;;
21000;SDS011;10658;50.920;12.238;2022-09-06T17:12:36;2.60;;;2.40;;
21000;SDS011;10658;50.920;12.238;2022-09-06T17:16:38;3.05;;;2.75;;
21000;SDS011;10658;50.920;12.238;2022-09-06T17:20:58;2.70;;;2.50;;
21000;SDS011;10658;50.920;12.238;2022-09-06T17:25:04;3.58;;;2.50;;
21000;SDS011;10658;50.920;12.238;2022-09-06T17:29:06;3.50;;;2.67;;
21000;SDS011;10658;50.920;12.238;2022-09-06T17:33:08;3.38;;;2.40;;
21000;SDS011;10658;50.920;12.238;2022-09-06T17:37:09;3.33;;;2.50;;
21000;SDS011;10658;50.920;12.238;2022-09-06T17:41:17;2.33;;;2.00;;
21000;SDS011;10658;50.920;12.238;2022-09-06T17:45:20;2.28;;;2.08;;
21000;SDS011;10658;50.920;12.238;2022-09-06T17:49:22;2.15;;;2.03;;
21000;SDS011;10658;50.920;12.238;2022-09-06T17:53:23;3.15;;;2.38;;
21000;SDS011;10658;50.920;12.238;2022-09-06T17:57:25;2.20;;;1.95;;
21000;SDS011;10658;50.920;12.238;2022-09-06T18:01:27;2.50;;;2.30;;
21000;SDS011;10658;50.920;12.238;2022-09-06T18:05:29;3.58;;;2.30;;
21000;SDS011;10658;50.920;12.238;2022-09-06T18:09:34;2.55;;;2.28;;
21000;SDS011;10658;50.920;12.238;2022-09-06T18:13:36;2.25;;;2.05;;
21000;SDS011;10658;50.920;12.238;2022-09-06T18:17:37;2.10;;;1.90;;
21000;SDS011;10658;50.920;12.238;2022-09-06T18:21:38;2.33;;;1.90;;
21000;SDS011;10658;50.920;12.238;2022-09-06T18:25:40;2.13;;;1.92;;
21000;SDS011;10658;50.920;12.238;2022-09-06T18:29:41;2.05;;;1.90;;
21000;SDS011;10658;50.920;12.238;2022-09-06T18:33:42;4.50;;;2.58;;
21000;SDS011;10658;50.920;12.238;2022-09-06T18:37:45;3.83;;;2.25;;
21000;SDS011;10658;50.920;12.238;2022-09-06T18:41:46;3.25;;;2.10;;
21000;SDS011;10658;50.920;12.238;2022-09-06T18:46:00;2.28;;;2.08;;
21000;SDS011;10658;50.920;12.238;2022-09-06T18:50:02;3.60;;;2.10;;
21000;SDS011;10658;50.920;12.238;2022-09-06T18:54:04;3.70;;;2.60;;
21000;SDS011;10658;50.920;12.238;2022-09-06T18:58:06;4.15;;;2.88;;
21000;SDS011;10658;50.920;12.238;2022-09-06T19:02:06;3.20;;;2.65;;
21000;SDS011;10658;50.920;12.238;2022-09-06T19:06:09;3.85;;;2.88;;
21000;SDS011;10658;50.920;12.238;2022-09-06T19:10:12;5.25;;;3.30;;
21000;SDS011;10658;50.920;12.238;2022-09-06T19:14:13;4.95;;;3.78;;
21000;SDS011;10658;50.920;12.238;2022-09-06T19:18:14;4.72;;;3.70;;
21000;SDS011;10658;50.920;12.238;2022-09-06T19:22:15;5.40;;;3.30;;
21000;SDS011;10658;50.920;12.238;2022-09-06T19:26:17;5.15;;;3.47;;
21000;SDS011;10658;50.920;12.238;2022-09-06T19:30:20;3.88;;;3.33;;
21000;SDS011;10658;50.920;12.238;2022-09-06T19:34:20;4.03;;;2.90;;
21000;SDS011;10658;50.920;12.238;2022-09-06T19:38:21;3.40;;;3.05;;
21000;SDS011;10658;50.920;12.238;2022-09-06T19:42:23;3.35;;;2.92;;
21000;SDS011;10658;50.920;12.238;2022-09-06T19:46:24;3.97;;;3.03;;
21000;SDS011;10658;50.920;12.238;2022-09-06T19:50:26;4.55;;;2.60;;
21000;SDS011;10658;50.920;12.238;2022-09-06T19:54:27;3.30;;;3.00;;
21000;SDS011;10658;50.920;12.238;2022-09-06T19:58:29;6.95;;;4.22;;
21000;SDS011;10658;50.920;12.238;2022-09-06T20:02:30;3.83;;;2.97;;
21000;SDS011;10658;50.920;12.238;2022-09-06T20:06:31;5.72;;;3.28;;
21000;SDS011;10658;50.920;12.238;2022-09-06T20:10:32;6.15;;;3.05;;
21000;SDS011;10658;50.920;12.238;2022-09-06T20:14:34;3.38;;;2.50;;
21000;SDS011;10658;50.920;12.238;2022-09-06T20:18:35;2.90;;;2.45;;
21000;SDS011;10658;50.920;12.238;2022-09-06T20:22:37;3.20;;;2.88;;
21000;SDS011;10658;50.920;12.238;2022-09-06T20:26:38;3.72;;;3.15;;
21000;SDS011;10658;50.920;12.238;2022-09-06T20:30:43;2.83;;;2.45;;
21000;SDS011;10658;50.920;12.238;2022-09-06T20:34:44;2.85;;;2.55;;
21000;SDS011;10658;50.920;12.238;2022-09-06T20:38:46;3.40;;;3.08;;
21000;SDS011;10658;50.920;12.238;2022-09-06T20:42:47;5.03;;;3.45;;
21000;SDS011;10658;50.920;12.238;2022-09-06T20:46:48;3.53;;;2.90;;
21000;SDS011;10658;50.920;12.238;2022-09-06T20:50:57;5.53;;;2.85;;
21000;SDS011;10658;50.920;12.238;2022-09-06T20:54:59;3.78;;;3.20;;
21000;SDS011;10658;50.920;12.238;2022-09-06T20:59:01;3.72;;;3.28;;
21000;SDS011;10658;50.920;12.238;2022-09-06T21:03:05;3.58;;;2.67;;
21000;SDS011;10658;50.920;12.238;2022-09-06T21:07:06;3.28;;;2.50;;
21000;SDS011;10658;50.920;12.238;2022-09-06T21:11:08;5.10;;;2.92;;
21000;SDS011;10658;50.920;12.238;2022-09-06T21:15:10;4.00;;;3.60;;
21000;SDS011;10658;50.920;12.238;2022-09-06T21:19:11;3.70;;;3.28;;
21000;SDS011;10658;50.920;12.238;2022-09-06T21:23:12;4.30;;;3.58;;
21000;SDS011;10658;50.920;12.238;2022-09-06T21:27:13;3.17;;;2.90;;
21000;SDS011;10658;50.920;12.238;2022-09-06T21:35:23;3.42;;;2.90;;
21000;SDS011;10658;50.920;12.238;2022-09-06T21:39:24;4.20;;;3.17;;
21000;SDS011;10658;50.920;12.238;2022-09-06T21:43:25;3.67;;;3.05;;
21000;SDS011;10658;50.920;12.238;2022-09-06T21:47:28;3.78;;;3.25;;
21000;SDS011;10658;50.920;12.238;2022-09-06T21:51:31;4.07;;;3.13;;
21000;SDS011;10658;50.920;12.238;2022-09-06T21:55:33;3.42;;;2.97;;
21000;SDS011;10658;50.920;12.238;2022-09-06T21:59:34;5.97;;;4.35;;
21000;SDS011;10658;50.920;12.238;2022-09-06T22:03:35;3.35;;;3.05;;
21000;SDS011;10658;50.920;12.238;2022-09-06T22:07:39;3.58;;;2.65;;
21000;SDS011;10658;50.920;12.238;2022-09-06T22:11:42;3.38;;;2.83;;
21000;SDS011;10658;50.920;12.238;2022-09-06T22:15:45;4.15;;;2.95;;
21000;SDS011;10658;50.920;12.238;2022-09-06T22:19:47;3.65;;;3.25;;
21000;SDS011;10658;50.920;12.238;2022-09-06T22:23:58;4.90;;;2.97;;
21000;SDS011;10658;50.920;12.238;2022-09-06T22:28:01;4.03;;;3.22;;
21000;SDS011;10658;50.920;12.238;2022-09-06T22:32:03;5.82;;;3.60;;
21000;SDS011;10658;50.920;12.238;2022-09-06T22:36:04;6.53;;;3.95;;
21000;SDS011;10658;50.920;12.238;2022-09-06T22:40:07;4.50;;;3.33;;
21000;SDS011;10658;50.920;12.238;2022-09-06T22:44:09;5.80;;;3.15;;
21000;SDS011;10658;50.920;12.238;2022-09-06T22:48:11;5.55;;;3.20;;
21000;SDS011;10658;50.920;12.238;2022-09-06T22:52:13;4.97;;;3.55;;
21000;SDS011;10658;50.920;12.238;2022-09-06T22:56:14;6.28;;;4.20;;
21000;SDS011;10658;50.920;12.238;2022-09-06T23:00:15;4.70;;;3.92;;
21000;SDS011;10658;50.920;12.238;2022-09-06T23:04:17;3.95;;;3.53;;
21000;SDS011;10658;50.920;12.238;2022-09-06T23:08:19;4.40;;;3.30;;
21000;SDS011;10658;50.920;12.238;2022-09-06T23:12:21;4.85;;;2.90;;
21000;SDS011;10658;50.920;12.238;2022-09-06T23:16:23;5.45;;;3.63;;
21000;SDS011;10658;50.920;12.238;2022-09-06T23:20:24;4.38;;;3.63;;
21000;SDS011;10658;50.920;12.238;2022-09-06T23:24:48;5.22;;;4.68;;
21000;SDS011;10658;50.920;12.238;2022-09-06T23:28:49;4.03;;;3.22;;
21000;SDS011;10658;50.920;12.238;2022-09-06T23:32:56;4.30;;;3.30;;
21000;SDS011;10658;50.920;12.238;2022-09-06T23:36:57;4.13;;;3.72;;
21000;SDS011;10658;50.920;12.238;2022-09-06T23:41:00;8.18;;;3.83;;
21000;SDS011;10658;50.920;12.238;2022-09-06T23:45:01;4.07;;;3.60;;
21000;SDS011;10658;50.920;12.238;2022-09-06T23:49:03;7.50;;;4.10;;
21000;SDS011;10658;50.920;12.238;2022-09-06T23:53:04;6.60;;;4.70;;
21000;SDS011;10658;50.920;12.238;2022-09-06T23:57:05;4.53;;;3.53;;
